Time;durP1;ratioP1;P1;durP2;ratioP2;P2;SDS_P1;SDS_P2;PMS_P1;PMS_P2;Temp;Humidity;BMP_temperature;BMP_pressure;BME280_temperature;BME280_humidity;BME280_pressure;Samples;Min_cycle;Max_cycle;Signal;HPM_P1;HPM_P2
2024/02/19 00:03:55;;;;;;;35.60;18.50;;;;;;;4.32;100.00;101014.74;213846;1292;139334;-88
2024/02/19 00:08:55;;;;;;;39.60;18.10;;;;;;;4.35;100.00;101006.54;213160;1291;140471;-87
2024/02/19 00:13:57;;;;;;;36.80;18.80;;;;;;;4.39;100.00;100998.11;213807;1291;139468;-88
2024/02/19 00:18:57;;;;;;;34.20;18.70;;;;;;;4.42;100.00;100990.19;213455;1290;140939;-88
2024/02/19 00:23:58;;;;;;;40.90;20.20;;;;;;;4.42;100.00;100982.89;214058;1290;98869;-88
2024/02/19 00:28:58;;;;;;;33.70;19.40;;;;;;;4.44;100.00;100968.80;213331;1299;139769;-88
2024/02/19 00:33:59;;;;;;;36.70;17.90;;;;;;;4.45;100.00;100957.64;213773;1291;139841;-89
2024/02/19 00:38:59;;;;;;;35.70;18.50;;;;;;;4.50;100.00;100953.63;213141;1286;140194;-89
2024/02/19 00:44:00;;;;;;;40.80;20.10;;;;;;;4.53;100.00;100935.69;213696;1292;139373;-89
2024/02/19 00:49:00;;;;;;;33.40;18.70;;;;;;;4.54;100.00;100926.39;213201;1287;140153;-87
2024/02/19 00:54:01;;;;;;;38.30;20.40;;;;;;;4.54;100.00;100911.92;213928;1286;98061;-87
2024/02/19 00:59:02;;;;;;;37.80;19.60;;;;;;;4.56;100.00;100905.06;215045;1285;141602;-89
2024/02/19 01:04:03;;;;;;;40.70;20.20;;;;;;;4.56;100.00;100893.86;214226;1289;139038;-87
2024/02/19 01:09:03;;;;;;;38.50;21.20;;;;;;;4.58;100.00;100885.08;213091;1294;139920;-88
2024/02/19 01:14:04;;;;;;;42.10;20.20;;;;;;;4.60;100.00;100877.91;213846;1292;139000;-88
2024/02/19 01:19:05;;;;;;;43.40;20.20;;;;;;;4.61;100.00;100866.27;213340;1298;140667;-87
2024/02/19 01:24:06;;;;;;;41.20;21.30;;;;;;;4.62;100.00;100849.94;213876;1287;111112;-88
2024/02/19 01:29:06;;;;;;;40.10;21.70;;;;;;;4.63;100.00;100845.93;213610;1293;140262;-88
2024/02/19 01:34:08;;;;;;;39.90;20.20;;;;;;;4.66;100.00;100832.98;214190;1286;139363;-90
2024/02/19 01:39:09;;;;;;;37.30;19.90;;;;;;;4.69;100.00;100826.73;213816;1286;141426;-87
2024/02/19 01:44:09;;;;;;;36.90;21.00;;;;;;;4.70;100.00;100813.16;214290;1285;139409;-88
2024/02/19 01:49:11;;;;;;;33.50;18.10;;;;;;;4.69;100.00;100806.64;213507;1286;141142;-88
2024/02/19 01:54:14;;;;;;;40.60;21.60;;;;;;;4.71;100.00;100795.34;214495;1286;110088;-88
2024/02/19 01:59:16;;;;;;;39.60;21.50;;;;;;;4.73;100.00;100790.84;213979;1286;140260;-89
2024/02/19 02:04:18;;;;;;;37.60;21.20;;;;;;;4.77;100.00;100801.11;214981;1292;138470;-89
2024/02/19 02:09:18;;;;;;;40.30;20.50;;;;;;;4.80;100.00;100796.55;213206;1285;139875;-88
2024/02/19 02:14:19;;;;;;;38.40;21.90;;;;;;;4.81;100.00;100790.37;213691;1286;139461;-89
2024/02/19 02:19:19;;;;;;;46.10;20.40;;;;;;;4.82;100.00;100780.53;213117;1287;140025;-88
2024/02/19 02:24:20;;;;;;;37.20;19.90;;;;;;;4.83;100.00;100774.86;213544;1292;98474;-87
2024/02/19 02:29:20;;;;;;;38.70;19.90;;;;;;;4.84;100.00;100773.74;213148;1292;139878;-89
2024/02/19 02:34:22;;;;;;;36.90;20.00;;;;;;;4.83;100.00;100761.79;214432;1287;139298;-88
2024/02/19 02:39:23;;;;;;;33.20;19.20;;;;;;;4.84;100.00;100754.50;213818;1286;141628;-87
2024/02/19 02:44:24;;;;;;;39.20;20.20;;;;;;;4.82;100.00;100738.51;214701;1289;138933;-87
2024/02/19 02:49:25;;;;;;;43.00;21.20;;;;;;;4.81;100.00;100734.34;213673;1288;140267;-87
2024/02/19 02:54:25;;;;;;;36.30;20.10;;;;;;;4.80;100.00;100726.52;214315;1287;97945;-88
2024/02/19 02:59:26;;;;;;;44.50;21.40;;;;;;;4.78;100.00;100714.69;213640;1286;139793;-90
2024/02/19 03:04:26;;;;;;;44.50;20.10;;;;;;;4.78;100.00;100706.41;215227;1289;139851;-91
2024/02/19 03:09:27;;;;;;;42.10;21.40;;;;;;;4.74;100.00;100697.14;213884;1289;139968;-90
2024/02/19 03:14:27;;;;;;;37.20;20.50;;;;;;;4.72;100.00;100685.48;214390;1289;139662;-91
2024/02/19 03:19:28;;;;;;;42.40;21.30;;;;;;;4.71;100.00;100676.10;213869;1289;140255;-90
2024/02/19 03:24:28;;;;;;;40.00;20.30;;;;;;;4.67;100.00;100671.25;213970;1288;99299;-91
2024/02/19 03:29:28;;;;;;;35.50;19.70;;;;;;;4.65;100.00;100664.65;213325;1286;140231;-91
2024/02/19 03:34:28;;;;;;;36.30;20.20;;;;;;;4.68;100.00;100658.84;213792;1285;141020;-90
2024/02/19 03:39:29;;;;;;;41.50;20.60;;;;;;;4.70;100.00;100652.91;213360;1288;140793;-90
2024/02/19 03:44:29;;;;;;;50.10;24.20;;;;;;;4.71;100.00;100639.02;213831;1286;140439;-90
2024/02/19 03:49:30;;;;;;;37.20;19.50;;;;;;;4.71;100.00;100633.02;213445;1285;140351;-90
2024/02/19 03:54:30;;;;;;;40.80;21.70;;;;;;;4.71;100.00;100628.79;214058;1286;97993;-90
2024/02/19 03:59:32;;;;;;;38.90;20.40;;;;;;;4.73;100.00;100618.54;213340;1286;140210;-91
2024/02/19 04:04:32;;;;;;;36.40;20.50;;;;;;;4.75;100.00;100610.26;214670;1288;139403;-90
2024/02/19 04:09:34;;;;;;;40.50;19.90;;;;;;;4.77;100.00;100604.73;214200;1285;140457;-92
2024/02/19 04:14:35;;;;;;;35.10;19.20;;;;;;;4.80;100.00;100598.52;214205;1289;139398;-93
2024/02/19 04:19:35;;;;;;;36.50;19.30;;;;;;;4.83;100.00;100591.95;213551;1285;141564;-91
2024/02/19 04:24:38;;;;;;;39.40;21.10;;;;;;;4.87;100.00;100585.23;214173;1286;98037;-93
2024/02/19 04:29:39;;;;;;;38.30;20.60;;;;;;;4.89;100.00;100578.52;214270;1288;139839;-94
2024/02/19 04:34:39;;;;;;;39.50;19.60;;;;;;;4.92;100.00;100568.71;214948;1285;138819;-95
2024/02/19 04:39:39;;;;;;;39.10;21.30;;;;;;;4.92;100.00;100558.92;213984;1290;140022;-93
2024/02/19 04:44:40;;;;;;;39.00;20.70;;;;;;;4.93;100.00;100552.81;214391;1285;139014;-92
2024/02/19 04:49:42;;;;;;;40.30;21.70;;;;;;;4.94;100.00;100546.91;213833;1286;139973;-94
2024/02/19 04:54:42;;;;;;;35.70;19.20;;;;;;;4.97;100.00;100535.58;214758;1288;98886;-93
2024/02/19 04:59:42;;;;;;;43.10;21.20;;;;;;;5.01;100.00;100533.04;213575;1289;139648;-92
2024/02/19 05:04:43;;;;;;;40.70;21.50;;;;;;;5.03;100.00;100522.30;214051;1286;138783;-92
2024/02/19 05:09:43;;;;;;;37.40;21.30;;;;;;;5.07;100.00;100515.96;213786;1293;141145;-93
2024/02/19 05:14:44;;;;;;;38.30;20.50;;;;;;;5.10;100.00;100508.20;214657;1285;139564;-92
2024/02/19 05:19:46;;;;;;;38.70;19.70;;;;;;;5.13;100.00;100503.85;214154;1287;140860;-92
2024/02/19 05:24:47;;;;;;;37.70;20.40;;;;;;;5.17;100.00;100498.52;214705;1288;105989;-93
2024/02/19 05:29:47;;;;;;;37.20;21.40;;;;;;;5.22;100.00;100494.48;214184;1286;139857;-92
2024/02/19 05:34:47;;;;;;;38.30;21.30;;;;;;;5.26;100.00;100484.11;215119;1285;139722;-91
2024/02/19 05:39:48;;;;;;;34.70;20.70;;;;;;;5.29;100.00;100477.73;214516;1287;140318;-92
2024/02/19 05:44:48;;;;;;;38.00;21.50;;;;;;;5.31;100.00;100478.35;214440;1292;139912;-92
2024/02/19 05:49:49;;;;;;;42.10;22.10;;;;;;;5.34;100.00;100471.11;213585;1287;140407;-91
2024/02/19 05:54:49;;;;;;;42.30;21.10;;;;;;;5.37;100.00;100462.40;214271;1289;99311;-91
2024/02/19 05:59:49;;;;;;;39.60;22.00;;;;;;;5.41;100.00;100464.88;213458;1291;139467;-93
2024/02/19 06:04:50;;;;;;;37.20;21.30;;;;;;;5.44;100.00;100456.72;213965;1292;138842;-92
2024/02/19 06:09:51;;;;;;;39.50;20.90;;;;;;;5.48;100.00;100450.82;213839;1287;140237;-92
2024/02/19 06:14:51;;;;;;;37.70;20.30;;;;;;;5.53;100.00;100449.17;213934;1291;139046;-92
2024/02/19 06:19:52;;;;;;;35.90;21.80;;;;;;;5.57;100.00;100445.65;213520;1287;139789;-92
2024/02/19 06:24:52;;;;;;;35.40;20.50;;;;;;;5.61;100.00;100441.41;213993;1286;99295;-92
2024/02/19 06:29:53;;;;;;;34.60;19.90;;;;;;;5.66;100.00;100434.94;213611;1291;140114;-92
2024/02/19 06:34:53;;;;;;;35.50;20.10;;;;;;;5.72;100.00;100430.59;213823;1291;138782;-91
2024/02/19 06:39:54;;;;;;;31.90;18.20;;;;;;;5.76;100.00;100426.28;213419;1285;141829;-91
2024/02/19 06:44:55;;;;;;;34.60;19.20;;;;;;;5.83;100.00;100419.63;213975;1285;139638;-91
2024/02/19 06:49:55;;;;;;;32.20;18.60;;;;;;;5.90;100.00;100412.35;213431;1285;140663;-90
2024/02/19 06:54:56;;;;;;;31.90;18.80;;;;;;;5.95;100.00;100409.63;213925;1286;138915;-90
2024/02/19 06:59:56;;;;;;;33.50;20.20;;;;;;;6.01;100.00;100410.17;213497;1287;144289;-90
2024/02/19 07:04:57;;;;;;;40.90;21.60;;;;;;;6.07;100.00;100410.11;214063;1285;139955;-92
2024/02/19 07:09:57;;;;;;;32.60;19.90;;;;;;;6.12;100.00;100405.60;214368;1289;139910;-89
2024/02/19 07:14:58;;;;;;;33.90;19.30;;;;;;;6.19;100.00;100407.67;213995;1289;138905;-91
2024/02/19 07:19:58;;;;;;;35.20;20.20;;;;;;;6.26;100.00;100401.98;213399;1291;141602;-91
2024/02/19 07:24:58;;;;;;;36.10;20.40;;;;;;;6.31;100.00;100402.77;214226;1286;139315;-91
2024/02/19 07:29:59;;;;;;;30.30;18.90;;;;;;;6.40;100.00;100397.52;213742;1285;140683;-90
2024/02/19 07:35:00;;;;;;;33.80;20.10;;;;;;;6.47;100.00;100388.51;214190;1288;139345;-92
2024/02/19 07:40:02;;;;;;;40.00;23.00;;;;;;;6.56;100.00;100384.86;213315;1287;140213;-91
2024/02/19 07:45:06;;;;;;;33.50;18.50;;;;;;;6.64;100.00;100372.64;213715;1288;139805;-89
2024/02/19 07:50:07;;;;;;;32.70;19.50;;;;;;;6.71;100.00;100369.99;213217;1287;140661;-91
2024/02/19 07:55:07;;;;;;;34.60;19.80;;;;;;;6.78;100.00;100364.26;213544;1286;139421;-90
2024/02/19 08:00:09;;;;;;;32.70;17.60;;;;;;;6.86;100.00;100361.55;213428;1292;140032;-91
2024/02/19 08:05:10;;;;;;;35.50;18.60;;;;;;;6.92;100.00;100362.49;213977;1285;138798;-90
2024/02/19 08:10:11;;;;;;;29.80;17.30;;;;;;;6.98;100.00;100354.50;213748;1285;140257;-92
2024/02/19 08:15:12;;;;;;;30.70;18.30;;;;;;;7.04;100.00;100349.40;214116;1285;139029;-90
2024/02/19 08:20:12;;;;;;;31.10;19.20;;;;;;;7.09;100.00;100346.87;213623;1285;140490;-91
2024/02/19 08:25:13;;;;;;;31.70;18.50;;;;;;;7.13;100.00;100348.92;214132;1285;139438;-92
2024/02/19 08:30:14;;;;;;;34.50;20.80;;;;;;;7.20;100.00;100343.98;213719;1287;172477;-92
2024/02/19 08:35:15;;;;;;;32.00;18.30;;;;;;;7.24;100.00;100345.09;214348;1289;138736;-94
2024/02/19 08:40:16;;;;;;;29.20;17.40;;;;;;;7.27;100.00;100343.70;213816;1285;140560;-90
2024/02/19 08:45:16;;;;;;;33.30;19.40;;;;;;;7.30;100.00;100340.23;214075;1285;138893;-90
2024/02/19 08:50:16;;;;;;;36.40;20.60;;;;;;;7.32;100.00;100335.34;213465;1286;140343;-91
2024/02/19 08:55:17;;;;;;;32.40;18.50;;;;;;;7.35;100.00;100331.35;213925;1290;140024;-89
2024/02/19 09:00:18;;;;;;;28.40;17.80;;;;;;;7.37;100.00;100328.13;213439;1287;139736;-89
2024/02/19 09:05:19;;;;;;;32.70;19.10;;;;;;;7.41;100.00;100327.34;213756;1287;139022;-88
2024/02/19 09:10:20;;;;;;;32.60;19.20;;;;;;;7.42;100.00;100322.75;214229;1287;140254;-88
2024/02/19 09:15:20;;;;;;;31.10;19.60;;;;;;;7.47;100.00;100320.52;214016;1286;139225;-89
2024/02/19 09:20:21;;;;;;;32.80;19.60;;;;;;;7.52;100.00;100317.48;213356;1286;139835;-90
2024/02/19 09:25:23;;;;;;;32.40;19.10;;;;;;;7.57;100.00;100314.00;213867;1291;139568;-90
2024/02/19 09:30:24;;;;;;;35.00;21.00;;;;;;;7.61;100.00;100317.46;213686;1285;139804;-90
2024/02/19 09:35:25;;;;;;;34.30;19.70;;;;;;;7.67;100.00;100314.76;213960;1285;140809;-89
2024/02/19 09:40:29;;;;;;;30.70;20.50;;;;;;;7.70;100.00;100311.77;213257;1289;139865;-88
2024/02/19 09:45:29;;;;;;;30.70;20.10;;;;;;;7.74;100.00;100309.98;213938;1287;139589;-89
2024/02/19 09:50:31;;;;;;;33.00;19.10;;;;;;;7.79;100.00;100308.90;213310;1287;140719;-88
2024/02/19 09:55:32;;;;;;;26.00;17.30;;;;;;;7.83;100.00;100309.14;214138;1285;139212;-89
2024/02/19 10:00:32;;;;;;;27.30;17.30;;;;;;;7.86;100.00;100306.45;213636;1285;139990;-88
2024/02/19 10:05:34;;;;;;;23.00;15.30;;;;;;;7.88;100.00;100302.76;214018;1285;138725;-90
2024/02/19 10:10:38;;;;;;;23.20;13.70;;;;;;;7.91;100.00;100304.29;213758;1286;139935;-87
2024/02/19 10:15:38;;;;;;;19.00;12.10;;;;;;;7.93;100.00;100304.10;214024;1285;138945;-89
2024/02/19 10:20:43;;;;;;;14.40;8.80;;;;;;;7.96;100.00;100309.01;213335;1288;140157;-91
2024/02/19 10:25:45;;;;;;;14.00;8.70;;;;;;;7.99;100.00;100315.25;214078;1287;139031;-89
2024/02/19 10:30:45;;;;;;;12.60;7.20;;;;;;;8.02;100.00;100317.67;213778;1290;139752;-90
2024/02/19 10:35:48;;;;;;;11.90;7.40;;;;;;;8.06;100.00;100317.66;214140;1286;138440;-89
2024/02/19 10:40:48;;;;;;;8.70;4.90;;;;;;;8.11;100.00;100316.73;213565;1287;140688;-88
2024/02/19 10:45:50;;;;;;;7.30;3.90;;;;;;;8.16;100.00;100324.35;214189;1285;138531;-88
2024/02/19 10:50:51;;;;;;;9.70;4.70;;;;;;;8.20;100.00;100327.75;213655;1290;140452;-87
2024/02/19 10:55:53;;;;;;;3.10;1.70;;;;;;;8.22;100.00;100339.70;214609;1286;139325;-85
2024/02/19 11:00:57;;;;;;;6.90;1.90;;;;;;;8.15;100.00;100356.28;213863;1286;139250;-86
2024/02/19 11:06:04;;;;;;;2.70;1.30;;;;;;;8.06;100.00;100355.40;214325;1287;107889;-86
2024/02/19 11:11:05;;;;;;;4.50;1.70;;;;;;;7.96;100.00;100361.77;213668;1287;140069;-87
2024/02/19 11:16:16;;;;;;;2.80;1.20;;;;;;;7.94;100.00;100366.11;213941;1286;138872;-87
2024/02/19 11:21:18;;;;;;;4.90;1.70;;;;;;;7.93;100.00;100377.77;213917;1286;138716;-89
2024/02/19 11:26:19;;;;;;;2.50;1.10;;;;;;;7.92;100.00;100376.89;213702;1285;140522;-89
2024/02/19 11:31:19;;;;;;;2.30;1.10;;;;;;;7.89;100.00;100380.11;214298;1291;138702;-89
2024/02/19 11:36:20;;;;;;;3.80;1.70;;;;;;;7.88;100.00;100382.52;213485;1291;139748;-90
2024/02/19 11:41:23;;;;;;;5.60;2.60;;;;;;;7.90;100.00;100385.69;213702;1286;138596;-89
2024/02/19 11:46:24;;;;;;;2.60;1.30;;;;;;;7.90;100.00;100386.86;214156;1285;139298;-89
2024/02/19 11:51:25;;;;;;;5.00;1.50;;;;;;;7.89;100.00;100389.27;214232;1286;138644;-87
2024/02/19 11:56:26;;;;;;;2.70;1.60;;;;;;;7.87;100.00;100394.23;213150;1287;140043;-87
2024/02/19 12:01:26;;;;;;;3.00;1.30;;;;;;;7.85;100.00;100397.31;213972;1286;138621;-88
2024/02/19 12:06:27;;;;;;;1.90;1.10;;;;;;;7.84;100.00;100394.81;213802;1288;140186;-89
2024/02/19 12:11:27;;;;;;;4.30;1.40;;;;;;;7.87;100.00;100395.72;214741;1287;139687;-87
2024/02/19 12:16:28;;;;;;;1.60;0.80;;;;;;;7.90;100.00;100401.50;214229;1290;139720;-87
2024/02/19 12:21:28;;;;;;;1.90;1.00;;;;;;;7.89;100.00;100401.00;214692;1287;139621;-87
2024/02/19 12:26:29;;;;;;;2.00;1.10;;;;;;;7.88;100.00;100406.01;213667;1286;139603;-89
2024/02/19 12:31:29;;;;;;;3.50;1.50;;;;;;;7.88;100.00;100405.30;214310;1286;139202;-86
2024/02/19 12:36:30;;;;;;;3.40;1.30;;;;;;;7.88;100.00;100404.91;213658;1287;139912;-86
2024/02/19 12:41:30;;;;;;;2.50;1.00;;;;;;;7.85;100.00;100407.75;213664;1291;138420;-87
2024/02/19 12:46:31;;;;;;;3.10;1.20;;;;;;;7.79;100.00;100414.56;213188;1287;140791;-84
2024/02/19 12:51:37;;;;;;;2.70;0.90;;;;;;;7.67;100.00;100418.46;213544;1290;139041;-85
2024/02/19 12:56:37;;;;;;;;;;;;;;;7.63;100.00;100422.27;213121;1287;162882;-86
2024/02/19 13:01:38;;;;;;;2.50;1.00;;;;;;;7.59;100.00;100434.93;213722;1285;125582;-86
2024/02/19 13:06:40;;;;;;;3.70;1.00;;;;;;;7.53;100.00;100444.11;213587;1287;140248;-85
2024/02/19 13:11:40;;;;;;;2.10;1.00;;;;;;;7.48;100.00;100442.19;213917;1285;138535;-86
2024/02/19 13:16:41;;;;;;;3.60;0.80;;;;;;;7.42;100.00;100446.44;213581;1285;140526;-85
2024/02/19 13:21:41;;;;;;;1.60;1.00;;;;;;;7.41;100.00;100452.52;213942;1286;138635;-87
2024/02/19 13:26:41;;;;;;;4.40;1.50;;;;;;;7.41;100.00;100463.00;213490;1288;139719;-86
2024/02/19 13:31:42;;;;;;;1.90;0.70;;;;;;;7.35;100.00;100475.59;213720;1287;138919;-88
2024/02/19 13:36:43;;;;;;;2.70;0.80;;;;;;;7.29;100.00;100478.59;213160;1290;139424;-85
2024/02/19 13:41:44;;;;;;;3.60;0.80;;;;;;;7.23;100.00;100489.30;213444;1287;138604;-86
2024/02/19 13:46:45;;;;;;;1.60;0.90;;;;;;;7.17;100.00;100488.88;213190;1292;139644;-87
2024/02/19 13:51:46;;;;;;;1.90;0.80;;;;;;;7.12;100.00;100499.32;213746;1287;138541;-89
2024/02/19 13:56:46;;;;;;;5.60;1.80;;;;;;;7.03;100.00;100511.77;213240;1287;139750;-87
2024/02/19 14:01:46;;;;;;;3.80;1.00;;;;;;;6.97;100.00;100520.51;213705;1292;138566;-86
2024/02/19 14:06:47;;;;;;;1.20;0.70;;;;;;;6.93;100.00;100533.52;213239;1287;140258;-85
2024/02/19 14:11:47;;;;;;;3.80;1.20;;;;;;;6.83;100.00;100538.97;213469;1289;138909;-86
2024/02/19 14:16:48;;;;;;;2.70;1.30;;;;;;;6.75;100.00;100546.78;213589;1287;139349;-87
2024/02/19 14:21:48;;;;;;;2.30;1.10;;;;;;;6.72;100.00;100554.53;213631;1291;138919;-86
2024/02/19 14:26:49;;;;;;;4.70;1.50;;;;;;;6.70;100.00;100556.27;213320;1287;139825;-88
2024/02/19 14:31:50;;;;;;;4.50;1.30;;;;;;;6.67;100.00;100564.39;213763;1285;138819;-86
2024/02/19 14:36:51;;;;;;;3.60;1.50;;;;;;;6.67;100.00;100570.88;213684;1290;139802;-86
2024/02/19 14:41:52;;;;;;;4.80;1.40;;;;;;;6.65;100.00;100576.59;214214;1285;138467;-86
2024/02/19 14:46:53;;;;;;;2.70;1.30;;;;;;;6.56;100.00;100581.95;213580;1288;139717;-84
2024/02/19 14:51:53;;;;;;;5.70;1.30;;;;;;;6.49;100.00;100590.10;213713;1287;138516;-86
2024/02/19 14:56:56;;;;;;;4.10;1.30;;;;;;;6.44;100.00;100599.31;213293;1287;140226;-85
2024/02/19 15:01:58;;;;;;;5.30;1.30;;;;;;;6.38;100.00;100604.21;213823;1285;138746;-86
2024/02/19 15:07:01;;;;;;;2.40;1.30;;;;;;;6.31;100.00;100608.30;213384;1287;140000;-87
2024/02/19 15:12:02;;;;;;;1.80;1.10;;;;;;;6.29;100.00;100617.05;213737;1286;98401;-86
2024/02/19 15:17:03;;;;;;;2.50;1.40;;;;;;;6.27;100.00;100623.54;213202;1291;139737;-88
2024/02/19 15:22:03;;;;;;;4.50;2.30;;;;;;;6.24;100.00;100623.38;213591;1290;138544;-87
2024/02/19 15:27:04;;;;;;;2.80;1.50;;;;;;;6.22;100.00;100631.61;213419;1290;139412;-88
2024/02/19 15:32:07;;;;;;;3.00;1.40;;;;;;;6.17;100.00;100635.43;213741;1287;138524;-87
2024/02/19 15:37:07;;;;;;;3.40;1.20;;;;;;;6.13;100.00;100641.37;213363;1286;141293;-89
2024/02/19 15:42:08;;;;;;;3.50;1.90;;;;;;;6.13;100.00;100651.11;213723;1288;97976;-88
2024/02/19 15:47:09;;;;;;;7.40;2.80;;;;;;;6.12;100.00;100654.22;213184;1287;139598;-88
2024/02/19 15:52:09;;;;;;;6.10;2.50;;;;;;;6.10;100.00;100664.62;213738;1287;138797;-90
2024/02/19 15:57:10;;;;;;;13.80;4.90;;;;;;;6.07;100.00;100669.68;213154;1290;140581;-88
2024/02/19 16:02:10;;;;;;;6.10;3.30;;;;;;;6.02;100.00;100677.93;213709;1290;138679;-88
2024/02/19 16:07:11;;;;;;;7.90;4.70;;;;;;;5.96;100.00;100686.95;213113;1290;139802;-87
2024/02/19 16:12:11;;;;;;;12.90;6.70;;;;;;;5.91;100.00;100688.89;213845;1287;98868;-88
2024/02/19 16:17:11;;;;;;;10.50;4.20;;;;;;;5.90;100.00;100698.69;213913;1287;139331;-88
2024/02/19 16:22:12;;;;;;;8.20;4.20;;;;;;;5.87;100.00;100698.81;213956;1285;138907;-89
2024/02/19 16:27:12;;;;;;;7.20;3.80;;;;;;;5.86;100.00;100706.27;213377;1288;139956;-90
2024/02/19 16:32:14;;;;;;;12.80;5.20;;;;;;;5.82;100.00;100709.02;213775;1292;140633;-90
2024/02/19 16:37:14;;;;;;;8.30;4.80;;;;;;;5.79;100.00;100714.23;213165;1287;139855;-89
2024/02/19 16:42:16;;;;;;;6.30;3.50;;;;;;;5.76;100.00;100716.73;213779;1290;98932;-89
2024/02/19 16:47:17;;;;;;;11.20;4.30;;;;;;;5.74;100.00;100728.20;213147;1287;139439;-89
2024/02/19 16:52:17;;;;;;;8.60;4.00;;;;;;;5.70;100.00;100728.63;213776;1292;139850;-88
2024/02/19 16:57:18;;;;;;;11.50;4.50;;;;;;;5.70;100.00;100738.91;213299;1286;139337;-88
2024/02/19 17:02:19;;;;;;;9.80;4.20;;;;;;;5.70;100.00;100743.99;213564;1287;138792;-89
2024/02/19 17:07:19;;;;;;;7.90;3.40;;;;;;;5.68;100.00;100748.53;213071;1285;140884;-89
2024/02/19 17:12:20;;;;;;;9.70;3.60;;;;;;;5.65;100.00;100747.11;214021;1286;99308;-88
2024/02/19 17:17:21;;;;;;;8.20;3.60;;;;;;;5.64;100.00;100742.38;213989;1286;139393;-88
2024/02/19 17:22:21;;;;;;;9.90;4.60;;;;;;;5.64;100.00;100744.65;213788;1285;138980;-88
2024/02/19 17:27:22;;;;;;;15.80;5.70;;;;;;;5.64;100.00;100743.40;213297;1286;139704;-89
2024/02/19 17:32:22;;;;;;;29.40;12.30;;;;;;;5.64;100.00;100750.89;213915;1291;139231;-88
2024/02/19 17:37:22;;;;;;;22.10;10.00;;;;;;;5.65;100.00;100754.88;213378;1289;140016;-89
2024/02/19 17:42:24;;;;;;;10.50;5.50;;;;;;;5.66;100.00;100758.92;213792;1286;97969;-90
2024/02/19 17:47:24;;;;;;;10.70;4.80;;;;;;;5.67;100.00;100768.14;213431;1288;139395;-89
2024/02/19 17:52:25;;;;;;;9.10;5.00;;;;;;;5.68;100.00;100765.91;213956;1286;138569;-90
2024/02/19 17:57:26;;;;;;;15.10;5.60;;;;;;;5.69;100.00;100769.80;213287;1288;139637;-89
2024/02/19 18:02:27;;;;;;;11.30;5.30;;;;;;;5.69;100.00;100771.42;213564;1287;138717;-89
2024/02/19 18:07:27;;;;;;;11.00;5.20;;;;;;;5.72;100.00;100775.67;213114;1286;140225;-89
2024/02/19 18:12:28;;;;;;;11.80;5.90;;;;;;;5.74;100.00;100774.17;213943;1285;98893;-88
2024/02/19 18:17:28;;;;;;;11.30;6.10;;;;;;;5.75;100.00;100777.57;215084;1286;140281;-90
2024/02/19 18:22:29;;;;;;;12.80;6.40;;;;;;;5.76;100.00;100774.73;213969;1291;139522;-90
2024/02/19 18:27:30;;;;;;;12.70;7.10;;;;;;;5.78;100.00;100765.52;213371;1291;140644;-89
2024/02/19 18:32:32;;;;;;;11.80;6.30;;;;;;;5.81;100.00;100768.70;213869;1286;138917;-89
2024/02/19 18:37:32;;;;;;;13.70;7.00;;;;;;;5.84;100.00;100770.19;213316;1291;140623;-89
2024/02/19 18:42:33;;;;;;;13.10;6.70;;;;;;;5.86;100.00;100766.67;214075;1288;97974;-89
2024/02/19 18:47:33;;;;;;;13.10;7.20;;;;;;;5.89;100.00;100765.76;213273;1291;140065;-89
2024/02/19 18:52:34;;;;;;;13.40;7.40;;;;;;;5.93;100.00;100770.13;213953;1291;138613;-89
2024/02/19 18:57:35;;;;;;;12.90;6.60;;;;;;;5.95;100.00;100769.73;213367;1286;139714;-88
2024/02/19 19:02:36;;;;;;;13.30;7.40;;;;;;;5.98;100.00;100771.60;213722;1293;139352;-89
2024/02/19 19:07:37;;;;;;;11.70;6.40;;;;;;;6.01;100.00;100769.36;213400;1285;140506;-89
2024/02/19 19:12:37;;;;;;;14.00;7.20;;;;;;;6.03;100.00;100770.47;214278;1291;98786;-89
2024/02/19 19:17:38;;;;;;;10.00;5.40;;;;;;;6.06;100.00;100774.16;214208;1289;139925;-90
2024/02/19 19:22:38;;;;;;;10.50;5.90;;;;;;;6.10;100.00;100772.41;214101;1286;138621;-89
2024/02/19 19:27:39;;;;;;;13.30;6.80;;;;;;;6.12;100.00;100765.64;213630;1291;139401;-89
2024/02/19 19:32:39;;;;;;;11.80;6.80;;;;;;;6.14;100.00;100757.67;214123;1289;138817;-90
2024/02/19 19:37:40;;;;;;;15.80;5.90;;;;;;;6.17;100.00;100759.50;213719;1292;139822;-89
2024/02/19 19:42:45;;;;;;;12.90;5.90;;;;;;;6.20;100.00;100760.51;214378;1291;98046;-91
2024/02/19 19:47:46;;;;;;;9.40;4.50;;;;;;;6.22;100.00;100768.09;213744;1291;139947;-90
2024/02/19 19:52:46;;;;;;;21.80;8.00;;;;;;;6.25;100.00;100764.81;213836;1286;138934;-90
2024/02/19 19:57:50;;;;;;;8.70;4.40;;;;;;;6.28;100.00;100765.55;213649;1289;140416;-90
2024/02/19 20:02:51;;;;;;;8.80;4.40;;;;;;;6.30;100.00;100765.31;214066;1287;138602;-90
2024/02/19 20:07:51;;;;;;;9.90;4.30;;;;;;;6.33;100.00;100767.73;213541;1286;139459;-91
2024/02/19 20:12:53;;;;;;;10.10;4.70;;;;;;;6.36;100.00;100767.20;214227;1292;110651;-89
2024/02/19 20:17:53;;;;;;;10.40;5.20;;;;;;;6.38;100.00;100772.29;214676;1287;139674;-91
2024/02/19 20:22:54;;;;;;;10.50;4.00;;;;;;;6.38;100.00;100779.17;213795;1293;138796;-91
2024/02/19 20:27:54;;;;;;;12.60;4.90;;;;;;;6.39;100.00;100780.75;213258;1289;176608;-90
2024/02/19 20:32:55;;;;;;;8.10;3.60;;;;;;;6.40;100.00;100785.08;213998;1289;138857;-92
2024/02/19 20:37:56;;;;;;;15.80;3.80;;;;;;;6.41;100.00;100789.09;213516;1289;140643;-92
2024/02/19 20:42:56;;;;;;;20.70;9.10;;;;;;;6.42;100.00;100793.19;213840;1288;97936;-92
2024/02/19 20:47:57;;;;;;;13.60;4.90;;;;;;;6.43;100.00;100791.05;213576;1287;139669;-91
2024/02/19 20:53:00;;;;;;;14.10;3.50;;;;;;;6.46;100.00;100793.00;213884;1292;138756;-89
2024/02/19 20:58:02;;;;;;;9.10;3.30;;;;;;;6.48;100.00;100792.85;213129;1289;139615;-90
2024/02/19 21:03:03;;;;;;;7.40;3.00;;;;;;;6.49;100.00;100791.02;213985;1286;138468;-90
2024/02/19 21:08:04;;;;;;;11.30;3.90;;;;;;;6.50;100.00;100793.56;213435;1291;140880;-89
2024/02/19 21:13:05;;;;;;;8.80;3.80;;;;;;;6.50;100.00;100789.16;214144;1291;139256;-89
2024/02/19 21:18:08;;;;;;;8.60;3.60;;;;;;;6.49;100.00;100791.65;214123;1288;139554;-89
2024/02/19 21:23:08;;;;;;;17.20;3.40;;;;;;;6.49;100.00;100789.38;213918;1290;138350;-90
2024/02/19 21:28:09;;;;;;;10.40;3.50;;;;;;;6.50;100.00;100785.19;213340;1289;140247;-88
2024/02/19 21:33:09;;;;;;;10.80;3.00;;;;;;;6.50;100.00;100785.98;213831;1288;139146;-87
2024/02/19 21:38:10;;;;;;;9.40;3.50;;;;;;;6.51;100.00;100786.46;213251;1287;140233;-87
2024/02/19 21:43:10;;;;;;;7.30;3.10;;;;;;;6.50;100.00;100783.79;213862;1286;138515;-94
2024/02/19 21:48:11;;;;;;;8.80;3.20;;;;;;;6.50;100.00;100780.27;213470;1291;139486;-92
2024/02/19 21:53:11;;;;;;;10.00;3.30;;;;;;;6.51;100.00;100773.65;214041;1289;138793;-92
2024/02/19 21:58:12;;;;;;;7.90;3.00;;;;;;;6.52;100.00;100778.75;213361;1289;139992;-90
2024/02/19 22:03:12;;;;;;;8.60;3.60;;;;;;;6.53;100.00;100777.38;213523;1293;138512;-92
2024/02/19 22:08:13;;;;;;;9.60;3.80;;;;;;;6.53;100.00;100776.16;213452;1288;139529;-90
2024/02/19 22:13:13;;;;;;;8.80;3.50;;;;;;;6.54;100.00;100768.60;214074;1286;138579;-93
2024/02/19 22:18:14;;;;;;;6.90;2.70;;;;;;;6.54;100.00;100770.63;215205;1288;139824;-91
2024/02/19 22:23:14;;;;;;;7.00;2.20;;;;;;;6.53;100.00;100770.66;214725;1286;138906;-91
2024/02/19 22:28:15;;;;;;;7.50;2.60;;;;;;;6.53;100.00;100770.11;213795;1288;139633;-94
2024/02/19 22:33:15;;;;;;;7.20;1.80;;;;;;;6.52;100.00;100766.90;214251;1288;139580;-91